sensor_id;sensor_type;location;lat;lon;timestamp;temperature;humidity
16627;DHT22;8427;52.204;7.202;2023-11-25T00:01:03;2.30;94.30
16627;DHT22;8427;52.204;7.202;2023-11-25T00:03:33;2.20;94.10
16627;DHT22;8427;52.204;7.202;2023-11-25T00:06:01;2.40;94.30
16627;DHT22;8427;52.204;7.202;2023-11-25T00:08:30;2.40;94.40
16627;DHT22;8427;52.204;7.202;2023-11-25T00:10:58;2.60;94.40
16627;DHT22;8427;52.204;7.202;2023-11-25T00:13:26;2.50;94.30
16627;DHT22;8427;52.204;7.202;2023-11-25T00:15:53;2.60;94.30
16627;DHT22;8427;52.204;7.202;2023-11-25T00:18:22;2.50;94.00
16627;DHT22;8427;52.204;7.202;2023-11-25T00:20:51;2.40;93.80
16627;DHT22;8427;52.204;7.202;2023-11-25T00:23:19;2.20;93.80
16627;DHT22;8427;52.204;7.202;2023-11-25T00:25:48;2.30;93.90
16627;DHT22;8427;52.204;7.202;2023-11-25T00:28:20;2.10;94.00
16627;DHT22;8427;52.204;7.202;2023-11-25T00:30:48;2.40;94.20
16627;DHT22;8427;52.204;7.202;2023-11-25T00:33:16;2.40;94.00
16627;DHT22;8427;52.204;7.202;2023-11-25T00:35:45;2.30;93.80
16627;DHT22;8427;52.204;7.202;2023-11-25T00:38:16;2.40;93.90
16627;DHT22;8427;52.204;7.202;2023-11-25T00:40:44;2.40;94.10
16627;DHT22;8427;52.204;7.202;2023-11-25T00:43:13;2.20;94.00
16627;DHT22;8427;52.204;7.202;2023-11-25T00:45:42;2.40;94.00
16627;DHT22;8427;52.204;7.202;2023-11-25T00:48:10;2.10;93.90
16627;DHT22;8427;52.204;7.202;2023-11-25T00:50:39;2.10;93.90
16627;DHT22;8427;52.204;7.202;2023-11-25T00:53:07;2.10;93.80
16627;DHT22;8427;52.204;7.202;2023-11-25T00:55:36;1.80;94.00
16627;DHT22;8427;52.204;7.202;2023-11-25T00:58:04;2.00;93.80
16627;DHT22;8427;52.204;7.202;2023-11-25T01:00:33;1.90;93.90
16627;DHT22;8427;52.204;7.202;2023-11-25T01:03:00;1.70;93.80
16627;DHT22;8427;52.204;7.202;2023-11-25T01:05:28;1.90;94.10
16627;DHT22;8427;52.204;7.202;2023-11-25T01:07:56;1.70;94.00
16627;DHT22;8427;52.204;7.202;2023-11-25T01:10:24;1.70;94.10
16627;DHT22;8427;52.204;7.202;2023-11-25T01:12:54;1.80;94.10
16627;DHT22;8427;52.204;7.202;2023-11-25T01:15:22;1.70;94.20
16627;DHT22;8427;52.204;7.202;2023-11-25T01:17:51;1.60;94.20
16627;DHT22;8427;52.204;7.202;2023-11-25T01:20:19;1.50;94.20
16627;DHT22;8427;52.204;7.202;2023-11-25T01:22:48;1.50;94.20
16627;DHT22;8427;52.204;7.202;2023-11-25T01:25:16;1.40;94.30
16627;DHT22;8427;52.204;7.202;2023-11-25T01:27:44;1.60;94.30
16627;DHT22;8427;52.204;7.202;2023-11-25T01:30:14;1.30;94.40
16627;DHT22;8427;52.204;7.202;2023-11-25T01:32:41;1.50;94.40
16627;DHT22;8427;52.204;7.202;2023-11-25T01:35:09;1.40;94.40
16627;DHT22;8427;52.204;7.202;2023-11-25T01:37:38;1.20;94.40
16627;DHT22;8427;52.204;7.202;2023-11-25T01:40:07;1.30;94.40
16627;DHT22;8427;52.204;7.202;2023-11-25T01:42:37;1.40;94.50
16627;DHT22;8427;52.204;7.202;2023-11-25T01:45:06;1.40;94.40
16627;DHT22;8427;52.204;7.202;2023-11-25T01:47:37;1.40;94.50
16627;DHT22;8427;52.204;7.202;2023-11-25T01:50:06;1.20;94.40
16627;DHT22;8427;52.204;7.202;2023-11-25T01:52:35;1.20;94.50
16627;DHT22;8427;52.204;7.202;2023-11-25T01:55:04;1.10;94.50
16627;DHT22;8427;52.204;7.202;2023-11-25T01:57:35;1.00;94.60
16627;DHT22;8427;52.204;7.202;2023-11-25T02:00:04;1.20;94.50
16627;DHT22;8427;52.204;7.202;2023-11-25T02:02:34;1.20;94.60
16627;DHT22;8427;52.204;7.202;2023-11-25T02:05:04;1.00;94.50
16627;DHT22;8427;52.204;7.202;2023-11-25T02:07:35;1.00;94.40
16627;DHT22;8427;52.204;7.202;2023-11-25T02:10:04;1.10;94.50
16627;DHT22;8427;52.204;7.202;2023-11-25T02:12:32;1.20;94.50
16627;DHT22;8427;52.204;7.202;2023-11-25T02:15:01;1.00;94.50
16627;DHT22;8427;52.204;7.202;2023-11-25T02:17:30;1.20;94.30
16627;DHT22;8427;52.204;7.202;2023-11-25T02:19:58;1.10;94.40
16627;DHT22;8427;52.204;7.202;2023-11-25T02:22:30;1.20;94.40
16627;DHT22;8427;52.204;7.202;2023-11-25T02:24:59;1.00;94.50
16627;DHT22;8427;52.204;7.202;2023-11-25T02:27:29;1.10;94.50
16627;DHT22;8427;52.204;7.202;2023-11-25T02:29:57;1.10;94.50
16627;DHT22;8427;52.204;7.202;2023-11-25T02:32:24;1.10;94.40
16627;DHT22;8427;52.204;7.202;2023-11-25T02:34:52;1.20;94.30
16627;DHT22;8427;52.204;7.202;2023-11-25T02:37:21;1.20;94.40
16627;DHT22;8427;52.204;7.202;2023-11-25T02:39:49;1.20;94.30
16627;DHT22;8427;52.204;7.202;2023-11-25T02:42:19;1.30;94.20
16627;DHT22;8427;52.204;7.202;2023-11-25T02:44:47;1.10;94.00
16627;DHT22;8427;52.204;7.202;2023-11-25T02:47:16;1.10;93.80
16627;DHT22;8427;52.204;7.202;2023-11-25T02:49:44;1.40;93.90
16627;DHT22;8427;52.204;7.202;2023-11-25T02:52:12;1.30;93.80
16627;DHT22;8427;52.204;7.202;2023-11-25T02:54:40;1.30;93.80
16627;DHT22;8427;52.204;7.202;2023-11-25T02:57:08;1.30;93.60
16627;DHT22;8427;52.204;7.202;2023-11-25T02:59:40;1.20;93.50
16627;DHT22;8427;52.204;7.202;2023-11-25T03:02:07;1.40;93.40
16627;DHT22;8427;52.204;7.202;2023-11-25T03:04:37;1.30;93.50
16627;DHT22;8427;52.204;7.202;2023-11-25T03:07:08;1.20;93.60
16627;DHT22;8427;52.204;7.202;2023-11-25T03:09:38;1.10;93.60
16627;DHT22;8427;52.204;7.202;2023-11-25T03:12:05;1.10;93.60
16627;DHT22;8427;52.204;7.202;2023-11-25T03:14:33;1.00;93.70
16627;DHT22;8427;52.204;7.202;2023-11-25T03:17:03;1.10;93.60
16627;DHT22;8427;52.204;7.202;2023-11-25T03:19:30;1.30;93.80
16627;DHT22;8427;52.204;7.202;2023-11-25T03:21:59;1.40;93.70
16627;DHT22;8427;52.204;7.202;2023-11-25T03:24:27;1.50;93.70
16627;DHT22;8427;52.204;7.202;2023-11-25T03:26:54;1.50;93.60
16627;DHT22;8427;52.204;7.202;2023-11-25T03:29:23;1.50;93.80
16627;DHT22;8427;52.204;7.202;2023-11-25T03:31:51;1.40;93.70
16627;DHT22;8427;52.204;7.202;2023-11-25T03:34:20;1.40;93.70
16627;DHT22;8427;52.204;7.202;2023-11-25T03:36:48;1.50;93.70
16627;DHT22;8427;52.204;7.202;2023-11-25T03:39:16;1.30;93.70
16627;DHT22;8427;52.204;7.202;2023-11-25T03:41:44;1.20;93.70
16627;DHT22;8427;52.204;7.202;2023-11-25T03:44:12;1.10;93.60
16627;DHT22;8427;52.204;7.202;2023-11-25T03:46:40;1.10;93.70
16627;DHT22;8427;52.204;7.202;2023-11-25T03:49:09;1.10;93.80
16627;DHT22;8427;52.204;7.202;2023-11-25T03:51:40;0.90;93.90
16627;DHT22;8427;52.204;7.202;2023-11-25T03:54:08;0.90;93.70
16627;DHT22;8427;52.204;7.202;2023-11-25T03:56:36;1.20;93.70
16627;DHT22;8427;52.204;7.202;2023-11-25T03:59:04;1.00;93.80
16627;DHT22;8427;52.204;7.202;2023-11-25T04:01:32;1.10;93.90
16627;DHT22;8427;52.204;7.202;2023-11-25T04:04:00;0.90;93.90
16627;DHT22;8427;52.204;7.202;2023-11-25T04:06:30;1.20;93.90
16627;DHT22;8427;52.204;7.202;2023-11-25T04:08:59;0.90;93.90
16627;DHT22;8427;52.204;7.202;2023-11-25T04:11:27;1.00;94.00
16627;DHT22;8427;52.204;7.202;2023-11-25T04:13:56;1.10;94.00
16627;DHT22;8427;52.204;7.202;2023-11-25T04:16:24;1.00;93.90
16627;DHT22;8427;52.204;7.202;2023-11-25T04:18:53;0.90;94.10
16627;DHT22;8427;52.204;7.202;2023-11-25T04:21:21;0.90;94.10
16627;DHT22;8427;52.204;7.202;2023-11-25T04:23:51;0.90;94.10
16627;DHT22;8427;52.204;7.202;2023-11-25T04:26:20;1.00;94.30
16627;DHT22;8427;52.204;7.202;2023-11-25T04:28:49;1.00;94.20
16627;DHT22;8427;52.204;7.202;2023-11-25T04:31:17;0.90;94.10
16627;DHT22;8427;52.204;7.202;2023-11-25T04:33:45;1.30;94.30
16627;DHT22;8427;52.204;7.202;2023-11-25T04:36:13;1.20;94.30
16627;DHT22;8427;52.204;7.202;2023-11-25T04:38:45;1.20;94.10
16627;DHT22;8427;52.204;7.202;2023-11-25T04:41:13;1.30;94.10
16627;DHT22;8427;52.204;7.202;2023-11-25T04:43:42;1.60;93.90
16627;DHT22;8427;52.204;7.202;2023-11-25T04:46:10;1.40;93.80
16627;DHT22;8427;52.204;7.202;2023-11-25T04:48:38;1.60;93.50
16627;DHT22;8427;52.204;7.202;2023-11-25T04:51:06;1.50;93.30
16627;DHT22;8427;52.204;7.202;2023-11-25T04:53:33;1.80;93.30
16627;DHT22;8427;52.204;7.202;2023-11-25T04:56:03;1.60;93.30
16627;DHT22;8427;52.204;7.202;2023-11-25T04:58:31;1.50;93.50
16627;DHT22;8427;52.204;7.202;2023-11-25T05:01:00;1.60;93.50
16627;DHT22;8427;52.204;7.202;2023-11-25T05:03:28;1.90;93.50
16627;DHT22;8427;52.204;7.202;2023-11-25T05:05:56;1.70;93.40
16627;DHT22;8427;52.204;7.202;2023-11-25T05:08:23;1.80;93.40
16627;DHT22;8427;52.204;7.202;2023-11-25T05:10:51;1.70;93.20
16627;DHT22;8427;52.204;7.202;2023-11-25T05:13:19;1.90;93.10
16627;DHT22;8427;52.204;7.202;2023-11-25T05:15:48;1.90;92.90
16627;DHT22;8427;52.204;7.202;2023-11-25T05:18:17;2.10;92.80
16627;DHT22;8427;52.204;7.202;2023-11-25T05:20:45;1.90;92.60
16627;DHT22;8427;52.204;7.202;2023-11-25T05:23:13;1.90;92.80
16627;DHT22;8427;52.204;7.202;2023-11-25T05:25:41;1.90;92.80
16627;DHT22;8427;52.204;7.202;2023-11-25T05:28:09;2.00;92.60
16627;DHT22;8427;52.204;7.202;2023-11-25T05:30:37;1.90;92.50
16627;DHT22;8427;52.204;7.202;2023-11-25T05:33:06;2.10;92.70
16627;DHT22;8427;52.204;7.202;2023-11-25T05:35:36;2.10;92.60
16627;DHT22;8427;52.204;7.202;2023-11-25T05:38:04;1.90;92.60
16627;DHT22;8427;52.204;7.202;2023-11-25T05:40:32;2.00;92.70
16627;DHT22;8427;52.204;7.202;2023-11-25T05:42:59;1.80;92.70
16627;DHT22;8427;52.204;7.202;2023-11-25T05:45:29;1.90;92.80
16627;DHT22;8427;52.204;7.202;2023-11-25T05:47:57;1.90;92.80
16627;DHT22;8427;52.204;7.202;2023-11-25T05:50:26;1.90;92.90
16627;DHT22;8427;52.204;7.202;2023-11-25T05:52:56;1.70;93.10
16627;DHT22;8427;52.204;7.202;2023-11-25T05:55:23;1.70;93.10
16627;DHT22;8427;52.204;7.202;2023-11-25T05:57:53;1.80;93.20
16627;DHT22;8427;52.204;7.202;2023-11-25T06:00:24;1.80;93.30
16627;DHT22;8427;52.204;7.202;2023-11-25T06:02:52;1.80;93.20
16627;DHT22;8427;52.204;7.202;2023-11-25T06:05:20;1.80;93.50
16627;DHT22;8427;52.204;7.202;2023-11-25T06:07:48;1.80;93.60
16627;DHT22;8427;52.204;7.202;2023-11-25T06:10:18;1.90;93.40
16627;DHT22;8427;52.204;7.202;2023-11-25T06:12:46;2.00;93.50
16627;DHT22;8427;52.204;7.202;2023-11-25T06:15:14;2.00;93.50
16627;DHT22;8427;52.204;7.202;2023-11-25T06:17:42;2.10;93.40
16627;DHT22;8427;52.204;7.202;2023-11-25T06:20:12;2.10;93.40
16627;DHT22;8427;52.204;7.202;2023-11-25T06:22:40;2.30;93.20
16627;DHT22;8427;52.204;7.202;2023-11-25T06:25:08;2.20;93.10
16627;DHT22;8427;52.204;7.202;2023-11-25T06:27:38;2.30;93.00
16627;DHT22;8427;52.204;7.202;2023-11-25T06:30:06;2.30;92.80
16627;DHT22;8427;52.204;7.202;2023-11-25T06:32:35;2.30;93.00
16627;DHT22;8427;52.204;7.202;2023-11-25T06:35:04;2.30;93.10
16627;DHT22;8427;52.204;7.202;2023-11-25T06:37:33;2.50;92.90
16627;DHT22;8427;52.204;7.202;2023-11-25T06:40:03;2.50;92.90
16627;DHT22;8427;52.204;7.202;2023-11-25T06:42:32;2.50;92.70
16627;DHT22;8427;52.204;7.202;2023-11-25T06:45:02;2.40;92.60
16627;DHT22;8427;52.204;7.202;2023-11-25T06:47:30;2.60;92.60
16627;DHT22;8427;52.204;7.202;2023-11-25T06:49:59;2.80;92.30
16627;DHT22;8427;52.204;7.202;2023-11-25T06:52:27;2.70;92.30
16627;DHT22;8427;52.204;7.202;2023-11-25T06:54:55;2.90;92.30
16627;DHT22;8427;52.204;7.202;2023-11-25T06:57:23;2.70;92.40
16627;DHT22;8427;52.204;7.202;2023-11-25T06:59:51;2.80;92.50
16627;DHT22;8427;52.204;7.202;2023-11-25T07:02:20;2.80;92.50
16627;DHT22;8427;52.204;7.202;2023-11-25T07:04:48;2.90;92.40
16627;DHT22;8427;52.204;7.202;2023-11-25T07:07:17;2.90;92.30
16627;DHT22;8427;52.204;7.202;2023-11-25T07:09:45;3.10;92.10
16627;DHT22;8427;52.204;7.202;2023-11-25T07:12:12;2.90;92.00
16627;DHT22;8427;52.204;7.202;2023-11-25T07:14:41;3.00;92.10
16627;DHT22;8427;52.204;7.202;2023-11-25T07:17:10;2.90;92.30
16627;DHT22;8427;52.204;7.202;2023-11-25T07:19:40;2.70;92.50
16627;DHT22;8427;52.204;7.202;2023-11-25T07:22:10;2.80;92.30
16627;DHT22;8427;52.204;7.202;2023-11-25T07:24:38;2.80;92.50
16627;DHT22;8427;52.204;7.202;2023-11-25T07:27:06;2.80;92.60
16627;DHT22;8427;52.204;7.202;2023-11-25T07:29:34;2.80;92.70
16627;DHT22;8427;52.204;7.202;2023-11-25T07:32:03;2.90;92.90
16627;DHT22;8427;52.204;7.202;2023-11-25T07:34:31;2.80;92.90
16627;DHT22;8427;52.204;7.202;2023-11-25T07:37:00;2.90;92.90
16627;DHT22;8427;52.204;7.202;2023-11-25T07:39:28;3.10;92.80
16627;DHT22;8427;52.204;7.202;2023-11-25T07:42:00;2.90;92.90
16627;DHT22;8427;52.204;7.202;2023-11-25T07:44:28;3.20;92.90
16627;DHT22;8427;52.204;7.202;2023-11-25T07:46:57;3.00;93.00
16627;DHT22;8427;52.204;7.202;2023-11-25T07:49:26;3.10;92.90
16627;DHT22;8427;52.204;7.202;2023-11-25T07:51:56;3.10;93.00
16627;DHT22;8427;52.204;7.202;2023-11-25T07:54:25;3.30;93.00
16627;DHT22;8427;52.204;7.202;2023-11-25T07:56:53;3.00;93.00
16627;DHT22;8427;52.204;7.202;2023-11-25T07:59:21;3.10;93.10
16627;DHT22;8427;52.204;7.202;2023-11-25T08:01:49;3.10;93.20
16627;DHT22;8427;52.204;7.202;2023-11-25T08:04:18;3.20;93.50
16627;DHT22;8427;52.204;7.202;2023-11-25T08:06:46;3.40;93.20
16627;DHT22;8427;52.204;7.202;2023-11-25T08:09:14;3.20;93.20
16627;DHT22;8427;52.204;7.202;2023-11-25T08:11:46;3.30;93.30
16627;DHT22;8427;52.204;7.202;2023-11-25T08:14:14;3.20;93.40
16627;DHT22;8427;52.204;7.202;2023-11-25T08:16:44;3.30;93.40
16627;DHT22;8427;52.204;7.202;2023-11-25T08:19:14;3.40;93.50
16627;DHT22;8427;52.204;7.202;2023-11-25T08:21:43;3.30;93.30
16627;DHT22;8427;52.204;7.202;2023-11-25T08:24:11;3.40;93.30
16627;DHT22;8427;52.204;7.202;2023-11-25T08:26:39;3.50;93.30
16627;DHT22;8427;52.204;7.202;2023-11-25T08:29:08;3.30;93.30
16627;DHT22;8427;52.204;7.202;2023-11-25T08:31:38;3.20;93.50
16627;DHT22;8427;52.204;7.202;2023-11-25T08:34:07;3.20;93.60
16627;DHT22;8427;52.204;7.202;2023-11-25T08:36:39;3.50;93.60
16627;DHT22;8427;52.204;7.202;2023-11-25T08:39:11;3.30;93.50
16627;DHT22;8427;52.204;7.202;2023-11-25T08:41:40;3.40;93.70
16627;DHT22;8427;52.204;7.202;2023-11-25T08:44:11;3.40;93.70
16627;DHT22;8427;52.204;7.202;2023-11-25T08:46:40;3.50;93.70
16627;DHT22;8427;52.204;7.202;2023-11-25T08:49:11;3.60;93.60
16627;DHT22;8427;52.204;7.202;2023-11-25T08:51:40;3.70;93.60
16627;DHT22;8427;52.204;7.202;2023-11-25T08:54:12;3.70;93.50
16627;DHT22;8427;52.204;7.202;2023-11-25T08:56:41;3.70;93.50
16627;DHT22;8427;52.204;7.202;2023-11-25T08:59:12;3.80;93.60
16627;DHT22;8427;52.204;7.202;2023-11-25T09:01:45;3.70;93.50
16627;DHT22;8427;52.204;7.202;2023-11-25T09:04:14;3.50;93.20
16627;DHT22;8427;52.204;7.202;2023-11-25T09:06:47;3.60;93.30
16627;DHT22;8427;52.204;7.202;2023-11-25T09:09:17;3.90;93.40
16627;DHT22;8427;52.204;7.202;2023-11-25T09:11:46;3.70;93.40
16627;DHT22;8427;52.204;7.202;2023-11-25T09:14:16;3.60;93.30
16627;DHT22;8427;52.204;7.202;2023-11-25T09:16:46;3.70;93.40
16627;DHT22;8427;52.204;7.202;2023-11-25T09:19:17;3.60;93.40
16627;DHT22;8427;52.204;7.202;2023-11-25T09:21:45;3.60;93.50
16627;DHT22;8427;52.204;7.202;2023-11-25T09:24:13;3.80;93.60
16627;DHT22;8427;52.204;7.202;2023-11-25T09:26:41;3.90;93.60
16627;DHT22;8427;52.204;7.202;2023-11-25T09:29:09;3.70;93.60
16627;DHT22;8427;52.204;7.202;2023-11-25T09:31:38;3.70;93.50
16627;DHT22;8427;52.204;7.202;2023-11-25T09:34:06;3.80;93.60
16627;DHT22;8427;52.204;7.202;2023-11-25T09:36:35;3.90;93.80
16627;DHT22;8427;52.204;7.202;2023-11-25T09:39:03;3.80;94.00
16627;DHT22;8427;52.204;7.202;2023-11-25T09:41:37;4.00;94.10
16627;DHT22;8427;52.204;7.202;2023-11-25T09:44:05;4.20;94.00
16627;DHT22;8427;52.204;7.202;2023-11-25T09:46:35;4.20;94.00
16627;DHT22;8427;52.204;7.202;2023-11-25T09:49:05;4.20;94.00
16627;DHT22;8427;52.204;7.202;2023-11-25T09:51:32;4.20;94.00
16627;DHT22;8427;52.204;7.202;2023-11-25T09:54:03;4.50;93.90
16627;DHT22;8427;52.204;7.202;2023-11-25T09:56:35;4.80;93.50
16627;DHT22;8427;52.204;7.202;2023-11-25T09:59:04;4.80;93.40
16627;DHT22;8427;52.204;7.202;2023-11-25T10:01:35;4.90;93.10
16627;DHT22;8427;52.204;7.202;2023-11-25T10:04:06;5.10;92.80
16627;DHT22;8427;52.204;7.202;2023-11-25T10:06:34;5.20;92.30
16627;DHT22;8427;52.204;7.202;2023-11-25T10:09:03;5.20;91.50
16627;DHT22;8427;52.204;7.202;2023-11-25T10:11:32;5.10;91.20
16627;DHT22;8427;52.204;7.202;2023-11-25T10:14:01;5.00;90.80
16627;DHT22;8427;52.204;7.202;2023-11-25T10:16:30;5.00;90.60
16627;DHT22;8427;52.204;7.202;2023-11-25T10:18:58;4.90;90.00
16627;DHT22;8427;52.204;7.202;2023-11-25T10:21:27;4.80;90.50
16627;DHT22;8427;52.204;7.202;2023-11-25T10:24:06;4.60;90.90
16627;DHT22;8427;52.204;7.202;2023-11-25T10:26:36;4.70;91.20
16627;DHT22;8427;52.204;7.202;2023-11-25T10:29:04;4.60;91.00
16627;DHT22;8427;52.204;7.202;2023-11-25T10:31:33;4.80;91.30
16627;DHT22;8427;52.204;7.202;2023-11-25T10:34:01;4.60;91.10
16627;DHT22;8427;52.204;7.202;2023-11-25T10:36:31;4.70;91.60
16627;DHT22;8427;52.204;7.202;2023-11-25T10:38:59;4.90;91.80
16627;DHT22;8427;52.204;7.202;2023-11-25T10:41:30;4.90;92.30
16627;DHT22;8427;52.204;7.202;2023-11-25T10:43:58;5.10;92.10
16627;DHT22;8427;52.204;7.202;2023-11-25T10:46:37;4.90;91.50
16627;DHT22;8427;52.204;7.202;2023-11-25T10:49:08;5.30;91.50
16627;DHT22;8427;52.204;7.202;2023-11-25T10:51:38;5.50;90.70
16627;DHT22;8427;52.204;7.202;2023-11-25T10:54:06;5.60;90.50
16627;DHT22;8427;52.204;7.202;2023-11-25T10:56:36;5.40;90.30
16627;DHT22;8427;52.204;7.202;2023-11-25T10:59:05;5.50;90.50
16627;DHT22;8427;52.204;7.202;2023-11-25T11:01:36;5.30;90.70
16627;DHT22;8427;52.204;7.202;2023-11-25T11:04:11;5.40;90.90
16627;DHT22;8427;52.204;7.202;2023-11-25T11:06:47;5.10;91.00
16627;DHT22;8427;52.204;7.202;2023-11-25T11:09:18;5.00;91.50
16627;DHT22;8427;52.204;7.202;2023-11-25T11:11:50;5.10;91.50
16627;DHT22;8427;52.204;7.202;2023-11-25T11:14:21;5.10;91.80
16627;DHT22;8427;52.204;7.202;2023-11-25T11:16:53;5.10;92.00
16627;DHT22;8427;52.204;7.202;2023-11-25T11:19:28;5.40;91.90
16627;DHT22;8427;52.204;7.202;2023-11-25T11:22:03;5.40;91.50
16627;DHT22;8427;52.204;7.202;2023-11-25T11:24:38;5.60;90.90
16627;DHT22;8427;52.204;7.202;2023-11-25T11:27:16;5.50;90.80
16627;DHT22;8427;52.204;7.202;2023-11-25T11:29:49;5.40;91.10
16627;DHT22;8427;52.204;7.202;2023-11-25T11:32:21;5.40;91.50
16627;DHT22;8427;52.204;7.202;2023-11-25T11:34:52;5.70;91.10
16627;DHT22;8427;52.204;7.202;2023-11-25T11:37:21;5.70;91.00
16627;DHT22;8427;52.204;7.202;2023-11-25T11:40:00;5.50;91.20
16627;DHT22;8427;52.204;7.202;2023-11-25T11:42:28;5.90;91.00
16627;DHT22;8427;52.204;7.202;2023-11-25T11:45:02;5.90;91.00
16627;DHT22;8427;52.204;7.202;2023-11-25T11:47:53;6.10;89.80
16627;DHT22;8427;52.204;7.202;2023-11-25T11:50:22;6.20;89.20
16627;DHT22;8427;52.204;7.202;2023-11-25T11:53:13;6.40;89.30
16627;DHT22;8427;52.204;7.202;2023-11-25T11:55:48;6.50;89.40
16627;DHT22;8427;52.204;7.202;2023-11-25T11:58:18;6.70;88.00
16627;DHT22;8427;52.204;7.202;2023-11-25T12:00:46;6.80;87.70
16627;DHT22;8427;52.204;7.202;2023-11-25T12:03:15;7.10;87.00
16627;DHT22;8427;52.204;7.202;2023-11-25T12:05:44;7.00;86.10
16627;DHT22;8427;52.204;7.202;2023-11-25T12:08:13;6.80;86.50
16627;DHT22;8427;52.204;7.202;2023-11-25T12:10:41;6.60;89.30
16627;DHT22;8427;52.204;7.202;2023-11-25T12:13:09;6.00;87.00
16627;DHT22;8427;52.204;7.202;2023-11-25T12:15:39;5.20;87.00
16627;DHT22;8427;52.204;7.202;2023-11-25T12:18:10;5.00;87.90
16627;DHT22;8427;52.204;7.202;2023-11-25T12:20:41;4.50;88.80
16627;DHT22;8427;52.204;7.202;2023-11-25T12:23:10;4.40;89.80
16627;DHT22;8427;52.204;7.202;2023-11-25T12:25:40;4.30;90.60
16627;DHT22;8427;52.204;7.202;2023-11-25T12:28:11;4.40;91.40
16627;DHT22;8427;52.204;7.202;2023-11-25T12:30:41;4.50;92.20
16627;DHT22;8427;52.204;7.202;2023-11-25T12:33:09;4.40;92.60
16627;DHT22;8427;52.204;7.202;2023-11-25T12:35:40;4.60;92.30
16627;DHT22;8427;52.204;7.202;2023-11-25T12:38:08;4.60;92.70
16627;DHT22;8427;52.204;7.202;2023-11-25T12:40:43;4.60;92.80
16627;DHT22;8427;52.204;7.202;2023-11-25T12:43:13;4.80;93.00
16627;DHT22;8427;52.204;7.202;2023-11-25T12:45:42;5.10;93.20
16627;DHT22;8427;52.204;7.202;2023-11-25T12:48:13;5.00;93.00
16627;DHT22;8427;52.204;7.202;2023-11-25T12:50:59;5.00;92.30
16627;DHT22;8427;52.204;7.202;2023-11-25T12:53:28;5.20;92.30
16627;DHT22;8427;52.204;7.202;2023-11-25T12:55:58;5.30;92.30
16627;DHT22;8427;52.204;7.202;2023-11-25T12:58:27;5.20;92.10
16627;DHT22;8427;52.204;7.202;2023-11-25T13:00:56;5.40;92.20
16627;DHT22;8427;52.204;7.202;2023-11-25T13:03:26;5.20;92.20
16627;DHT22;8427;52.204;7.202;2023-11-25T13:05:58;5.30;91.30
16627;DHT22;8427;52.204;7.202;2023-11-25T13:08:28;5.10;91.70
16627;DHT22;8427;52.204;7.202;2023-11-25T13:10:59;4.90;91.40
16627;DHT22;8427;52.204;7.202;2023-11-25T13:13:27;5.10;91.50
16627;DHT22;8427;52.204;7.202;2023-11-25T13:15:57;4.80;91.90
16627;DHT22;8427;52.204;7.202;2023-11-25T13:18:26;4.70;92.10
16627;DHT22;8427;52.204;7.202;2023-11-25T13:20:55;4.70;92.20
16627;DHT22;8427;52.204;7.202;2023-11-25T13:23:23;4.80;92.30
16627;DHT22;8427;52.204;7.202;2023-11-25T13:25:51;4.70;92.40
16627;DHT22;8427;52.204;7.202;2023-11-25T13:28:21;4.70;92.70
16627;DHT22;8427;52.204;7.202;2023-11-25T13:30:49;4.70;93.00
16627;DHT22;8427;52.204;7.202;2023-11-25T13:33:17;4.80;93.20
16627;DHT22;8427;52.204;7.202;2023-11-25T13:35:46;4.80;93.40
16627;DHT22;8427;52.204;7.202;2023-11-25T13:38:14;5.10;93.30
16627;DHT22;8427;52.204;7.202;2023-11-25T13:40:43;5.10;93.40
16627;DHT22;8427;52.204;7.202;2023-11-25T13:43:12;4.80;93.00
16627;DHT22;8427;52.204;7.202;2023-11-25T13:45:41;4.70;92.60
16627;DHT22;8427;52.204;7.202;2023-11-25T13:48:09;4.70;92.20
16627;DHT22;8427;52.204;7.202;2023-11-25T13:50:41;4.60;92.40
16627;DHT22;8427;52.204;7.202;2023-11-25T13:53:09;4.70;92.60
16627;DHT22;8427;52.204;7.202;2023-11-25T13:55:40;4.70;92.60
16627;DHT22;8427;52.204;7.202;2023-11-25T13:58:12;4.80;93.00
16627;DHT22;8427;52.204;7.202;2023-11-25T14:00:42;4.80;93.00
16627;DHT22;8427;52.204;7.202;2023-11-25T14:03:11;4.90;93.10
16627;DHT22;8427;52.204;7.202;2023-11-25T14:05:40;5.00;93.20
16627;DHT22;8427;52.204;7.202;2023-11-25T14:08:10;5.00;93.30
16627;DHT22;8427;52.204;7.202;2023-11-25T14:10:39;4.90;93.20
16627;DHT22;8427;52.204;7.202;2023-11-25T14:13:10;4.90;92.90
16627;DHT22;8427;52.204;7.202;2023-11-25T14:15:41;4.90;92.10
16627;DHT22;8427;52.204;7.202;2023-11-25T14:18:09;4.70;92.10
16627;DHT22;8427;52.204;7.202;2023-11-25T14:20:38;4.70;92.10
16627;DHT22;8427;52.204;7.202;2023-11-25T14:23:05;4.50;92.10
16627;DHT22;8427;52.204;7.202;2023-11-25T14:25:33;4.60;92.00
16627;DHT22;8427;52.204;7.202;2023-11-25T14:28:01;4.60;92.10
16627;DHT22;8427;52.204;7.202;2023-11-25T14:30:29;4.60;92.30
16627;DHT22;8427;52.204;7.202;2023-11-25T14:33:02;4.70;92.40
16627;DHT22;8427;52.204;7.202;2023-11-25T14:35:32;4.70;92.30
16627;DHT22;8427;52.204;7.202;2023-11-25T14:38:00;4.50;92.30
16627;DHT22;8427;52.204;7.202;2023-11-25T14:40:31;4.50;92.80
16627;DHT22;8427;52.204;7.202;2023-11-25T14:43:03;4.20;92.70
16627;DHT22;8427;52.204;7.202;2023-11-25T14:45:32;4.60;92.90
16627;DHT22;8427;52.204;7.202;2023-11-25T14:48:02;4.30;93.00
16627;DHT22;8427;52.204;7.202;2023-11-25T14:50:31;4.50;92.90
16627;DHT22;8427;52.204;7.202;2023-11-25T14:53:04;4.30;93.00
16627;DHT22;8427;52.204;7.202;2023-11-25T14:55:32;4.40;93.10
16627;DHT22;8427;52.204;7.202;2023-11-25T14:58:01;4.30;93.00
16627;DHT22;8427;52.204;7.202;2023-11-25T15:00:29;4.40;93.00
16627;DHT22;8427;52.204;7.202;2023-11-25T15:03:01;4.30;92.90
16627;DHT22;8427;52.204;7.202;2023-11-25T15:05:29;4.20;93.00
16627;DHT22;8427;52.204;7.202;2023-11-25T15:07:57;4.20;93.10
16627;DHT22;8427;52.204;7.202;2023-11-25T15:10:25;4.20;93.30
16627;DHT22;8427;52.204;7.202;2023-11-25T15:12:53;4.20;93.30
16627;DHT22;8427;52.204;7.202;2023-11-25T15:15:22;4.20;93.50
16627;DHT22;8427;52.204;7.202;2023-11-25T15:17:51;4.20;93.60
16627;DHT22;8427;52.204;7.202;2023-11-25T15:20:21;4.20;93.80
16627;DHT22;8427;52.204;7.202;2023-11-25T15:22:49;4.30;93.70
16627;DHT22;8427;52.204;7.202;2023-11-25T15:25:18;4.30;93.60
16627;DHT22;8427;52.204;7.202;2023-11-25T15:27:47;4.30;93.80
16627;DHT22;8427;52.204;7.202;2023-11-25T15:30:15;4.50;94.10
16627;DHT22;8427;52.204;7.202;2023-11-25T15:32:44;4.60;94.00
16627;DHT22;8427;52.204;7.202;2023-11-25T15:35:12;4.40;94.00
16627;DHT22;8427;52.204;7.202;2023-11-25T15:37:41;4.20;94.00
16627;DHT22;8427;52.204;7.202;2023-11-25T15:40:10;4.20;94.00
16627;DHT22;8427;52.204;7.202;2023-11-25T15:42:39;4.30;94.00
16627;DHT22;8427;52.204;7.202;2023-11-25T15:45:08;4.30;94.00
16627;DHT22;8427;52.204;7.202;2023-11-25T15:47:36;4.40;94.00
16627;DHT22;8427;52.204;7.202;2023-11-25T15:50:05;4.20;93.90
16627;DHT22;8427;52.204;7.202;2023-11-25T15:52:33;4.10;93.90
16627;DHT22;8427;52.204;7.202;2023-11-25T15:55:03;4.20;93.90
16627;DHT22;8427;52.204;7.202;2023-11-25T15:57:31;3.90;93.90
16627;DHT22;8427;52.204;7.202;2023-11-25T15:59:59;4.00;94.00
16627;DHT22;8427;52.204;7.202;2023-11-25T16:02:27;3.90;94.00
16627;DHT22;8427;52.204;7.202;2023-11-25T16:04:55;3.80;94.20
16627;DHT22;8427;52.204;7.202;2023-11-25T16:07:23;3.80;94.30
16627;DHT22;8427;52.204;7.202;2023-11-25T16:09:51;3.90;94.40
16627;DHT22;8427;52.204;7.202;2023-11-25T16:12:20;3.80;94.40
16627;DHT22;8427;52.204;7.202;2023-11-25T16:14:48;3.90;94.40